Terminal Aerodrome Forecast
Issued by NWS

Home | Current Version | Previous Version | Text Only | Print | Product List | Glossary On
Versions: 1 2 3 4 5 6 7 8 9 10 11 12 13 14 15 16 17 18
000
FTUS45 KLKN 221623 AAB
TAFEKO
TAF AMD
KEKO 221623Z 2216/2312 17015G25KT P6SM -SHSN OVC050
     FM230000 16010KT 1/2SM SN OVC012
     FM230500 VRB06KT 4SM -SHSN SCT015 OVC025=

USA.gov is the U.S. government's official web portal to all federal, state and local government web resources and services.